Time;durP1;ratioP1;P1;durP2;ratioP2;P2;SDS_P1;SDS_P2;PMS_P1;PMS_P2;Temp;Humidity;BMP_temperature;BMP_pressure;BME280_temperature;BME280_humidity;BME280_pressure;Samples;Min_cycle;Max_cycle;Signal;HPM_P1;HPM_P2
2022/01/07 00:00:39;;;;;;;15.50;7.45;;;;;;;-3.34;82.44;100456.22;1823388;78;25596;-77
2022/01/07 00:03:07;;;;;;;10.82;6.37;;;;;;;-3.37;82.53;100455.34;1823430;78;25534;-77
2022/01/07 00:05:34;;;;;;;12.50;7.58;;;;;;;-3.38;82.66;100465.09;1823297;78;27312;-77
2022/01/07 00:08:00;;;;;;;18.70;8.68;;;;;;;-3.39;82.76;100466.63;1823110;78;25368;-77
2022/01/07 00:10:27;;;;;;;13.05;6.12;;;;;;;-3.41;82.87;100467.35;1823216;78;25518;-77
2022/01/07 00:12:53;;;;;;;9.38;5.40;;;;;;;-3.41;82.87;100466.03;1823199;78;25778;-77
2022/01/07 00:15:21;;;;;;;10.88;5.20;;;;;;;-3.42;82.82;100466.55;1823258;78;25524;-77
2022/01/07 00:17:48;;;;;;;11.70;5.58;;;;;;;-3.44;82.84;100469.92;1823189;78;27381;-79
2022/01/07 00:20:15;;;;;;;15.48;8.55;;;;;;;-3.46;82.96;100466.66;1795276;78;25311;-78
2022/01/07 00:22:44;;;;;;;12.05;5.55;;;;;;;-3.45;83.11;100474.91;1823211;78;25569;-78
2022/01/07 00:25:13;;;;;;;13.48;6.45;;;;;;;-3.45;83.05;100471.45;1823276;78;26169;-77
2022/01/07 00:27:41;;;;;;;16.05;6.25;;;;;;;-3.47;83.14;100471.66;1823539;78;25439;-77
2022/01/07 00:30:12;;;;;;;12.07;6.33;;;;;;;-3.48;83.34;100472.67;1823197;78;27314;-77
2022/01/07 00:32:39;;;;;;;43.78;20.35;;;;;;;-3.46;83.37;100471.95;1795325;78;25452;-77
2022/01/07 00:35:08;;;;;;;16.37;7.15;;;;;;;-3.47;83.18;100470.86;1795520;78;25504;-77
2022/01/07 00:37:35;;;;;;;13.43;5.97;;;;;;;-3.51;83.16;100477.58;1805269;78;26298;-78
2022/01/07 00:40:04;;;;;;;10.28;4.87;;;;;;;-3.50;83.28;100482.66;1812574;78;25542;-79
2022/01/07 00:42:30;;;;;;;14.93;5.95;;;;;;;-3.52;83.21;100484.71;1802475;79;27329;-79
2022/01/07 00:44:57;;;;;;;12.05;5.62;;;;;;;-3.54;83.36;100485.93;1801578;79;25589;-78
2022/01/07 00:47:24;;;;;;;10.35;5.60;;;;;;;-3.55;83.42;100493.06;1802588;79;25425;-78
2022/01/07 00:49:50;;;;;;;10.13;5.30;;;;;;;-3.57;83.49;100493.78;1800895;77;25676;-79
2022/01/07 00:52:17;;;;;;;10.30;5.37;;;;;;;-3.57;83.63;100495.91;1800461;79;25556;-79
2022/01/07 00:54:44;;;;;;;13.20;5.97;;;;;;;-3.57;83.73;100496.43;1800482;79;27311;-79
2022/01/07 00:57:10;;;;;;;13.40;7.47;;;;;;;-3.57;83.90;100495.11;1801098;79;25565;-78
2022/01/07 00:59:37;;;;;;;11.70;5.42;;;;;;;-3.56;83.76;100507.30;1802577;79;25531;-79
2022/01/07 01:02:04;;;;;;;14.18;6.20;;;;;;;-3.58;84.02;100503.53;1801071;79;25662;-79
2022/01/07 01:04:32;;;;;;;15.63;6.37;;;;;;;-3.60;83.98;100502.94;1800562;79;25391;-80
2022/01/07 01:06:58;;;;;;;12.53;5.85;;;;;;;-3.61;84.04;100506.62;1800376;79;27306;-78
2022/01/07 01:09:25;;;;;;;16.67;6.37;;;;;;;-3.61;84.27;100503.98;1800380;79;25693;-78
2022/01/07 01:11:52;;;;;;;14.33;5.95;;;;;;;-3.61;84.47;100502.66;1800557;79;25570;-80
2022/01/07 01:14:18;;;;;;;17.05;6.08;;;;;;;-3.61;84.78;100507.94;1800456;79;26119;-79
2022/01/07 01:16:47;;;;;;;13.75;6.95;;;;;;;-3.61;84.66;100498.69;1800517;79;25427;-79
2022/01/07 01:19:13;;;;;;;15.32;6.90;;;;;;;-3.58;84.81;100500.09;1800496;79;27299;-79
2022/01/07 01:21:40;;;;;;;14.03;6.25;;;;;;;-3.61;84.89;100498.69;1800476;79;25420;-78
2022/01/07 01:24:07;;;;;;;12.80;5.45;;;;;;;-3.60;84.90;100502.94;1800482;79;25627;-79
2022/01/07 01:26:34;;;;;;;11.30;5.70;;;;;;;-3.59;85.07;100501.13;1800565;79;25695;-79
2022/01/07 01:29:00;;;;;;;8.10;4.70;;;;;;;-3.57;85.45;100496.43;1800543;79;25367;-78
2022/01/07 01:31:27;;;;;;;14.68;6.20;;;;;;;-3.55;85.37;100495.70;1800475;79;27477;-79
2022/01/07 01:33:53;;;;;;;15.18;5.92;;;;;;;-3.54;85.47;100494.70;1800395;79;25424;-79
2022/01/07 01:36:20;;;;;;;14.05;5.75;;;;;;;-3.52;85.30;100495.29;1800479;79;25566;-79
2022/01/07 01:38:46;;;;;;;9.60;5.75;;;;;;;-3.51;85.28;100494.77;1800386;79;25622;-79
2022/01/07 01:41:13;;;;;;;14.47;6.00;;;;;;;-3.50;85.46;100495.08;1800482;79;25527;-78
2022/01/07 01:43:40;;;;;;;13.65;5.78;;;;;;;-3.51;85.47;100502.19;1800493;79;27979;-79
2022/01/07 01:46:07;;;;;;;13.45;5.25;;;;;;;-3.51;85.68;100491.61;1800469;79;25421;-77
2022/01/07 01:48:34;;;;;;;17.85;5.42;;;;;;;-3.51;85.49;100496.89;1800531;78;25577;-78
2022/01/07 01:51:00;;;;;;;11.18;5.90;;;;;;;-3.50;85.36;100498.53;1800557;79;25603;-78
2022/01/07 01:53:27;;;;;;;16.95;6.00;;;;;;;-3.51;85.19;100500.86;1800912;79;25395;-78
2022/01/07 01:55:54;;;;;;;14.07;5.60;;;;;;;-3.52;85.38;100503.22;1800846;79;27368;-78
2022/01/07 01:58:21;;;;;;;10.95;5.40;;;;;;;-3.54;85.24;100511.88;1800650;79;25435;-78
2022/01/07 02:00:47;;;;;;;14.55;5.70;;;;;;;-3.55;85.35;100512.09;1800765;79;25189;-77
2022/01/07 02:03:14;;;;;;;11.95;6.05;;;;;;;-3.57;85.44;100509.66;1773488;79;25626;-78
2022/01/07 02:05:41;;;;;;;14.43;6.25;;;;;;;-3.58;85.57;100513.31;1800438;79;25585;-78
2022/01/07 02:08:09;;;;;;;18.77;6.85;;;;;;;-3.62;85.33;100518.20;1800411;79;27299;-78
2022/01/07 02:10:35;;;;;;;17.07;7.25;;;;;;;-3.65;85.36;100517.30;1800305;79;25730;-77
2022/01/07 02:13:02;;;;;;;13.43;6.58;;;;;;;-3.66;85.81;100518.83;1773366;79;25562;-77
2022/01/07 02:15:29;;;;;;;17.32;6.58;;;;;;;-3.65;85.92;100525.75;1800337;79;25610;-77
2022/01/07 02:17:57;;;;;;;16.07;6.15;;;;;;;-3.68;85.81;100524.32;1773388;79;25483;-77
2022/01/07 02:20:28;;;;;;;16.25;6.65;;;;;;;-3.67;86.07;100526.47;1800378;79;27359;-78
2022/01/07 02:22:57;;;;;;;13.85;6.80;;;;;;;-3.68;86.11;100532.77;1800299;79;25407;-77
2022/01/07 02:25:26;;;;;;;19.15;6.95;;;;;;;-3.70;86.21;100532.17;1800516;79;25644;-78
2022/01/07 02:27:54;;;;;;;14.75;6.55;;;;;;;-3.71;86.24;100529.22;1800357;79;25648;-77
2022/01/07 02:30:28;;;;;;;14.98;7.03;;;;;;;-3.73;86.15;100530.74;1800378;79;25376;-78
2022/01/07 02:32:56;;;;;;;17.30;6.58;;;;;;;-3.76;86.32;100533.31;1773218;79;27234;-78
2022/01/07 02:35:27;;;;;;;16.75;7.42;;;;;;;-3.77;86.26;100538.80;1800214;79;25695;-78
2022/01/07 02:37:54;;;;;;;19.70;7.10;;;;;;;-3.80;86.30;100544.02;1773266;79;25571;-78
2022/01/07 02:40:21;;;;;;;13.13;7.00;;;;;;;-3.80;86.02;100541.86;1800323;79;26251;-78
2022/01/07 02:42:47;;;;;;;15.88;7.45;;;;;;;-3.83;85.99;100539.63;1800349;79;25531;-78
2022/01/07 02:45:14;;;;;;;15.35;7.37;;;;;;;-3.85;86.28;100537.19;1800299;79;27277;-77
2022/01/07 02:47:54;;;;;;;15.60;6.97;;;;;;;-3.87;86.32;100535.27;1800253;79;25616;-78
2022/01/07 02:50:12;;;;;;;13.20;6.75;;;;;;;-3.85;86.45;100539.02;1799220;78;25545;-78
2022/01/07 02:52:39;;;;;;;15.08;6.95;;;;;;;-3.85;86.54;100542.98;1802549;79;26153;-78
2022/01/07 02:55:07;;;;;;;17.75;6.55;;;;;;;-3.88;86.19;100536.30;1802614;78;25181;-78
2022/01/07 02:57:33;;;;;;;15.20;7.12;;;;;;;-3.89;86.18;100542.59;1802624;79;27501;-77
2022/01/07 03:00:00;;;;;;;15.95;7.33;;;;;;;-3.89;86.29;100545.23;1802590;78;25658;-78
2022/01/07 03:02:26;;;;;;;13.05;6.62;;;;;;;-3.90;86.35;100550.20;1802575;78;25561;-78
2022/01/07 03:04:53;;;;;;;15.20;6.60;;;;;;;-3.90;86.39;100551.53;1802531;79;25508;-78
2022/01/07 03:07:19;;;;;;;12.75;6.00;;;;;;;-3.90;86.40;100550.73;1802659;79;25543;-78
2022/01/07 03:09:46;;;;;;;16.02;6.72;;;;;;;-3.94;86.37;100549.81;1802599;78;27476;-78
2022/01/07 03:12:12;;;;;;;14.68;6.10;;;;;;;-3.95;86.46;100556.13;1802532;79;25418;-77
2022/01/07 03:14:39;;;;;;;14.90;6.37;;;;;;;-3.95;86.37;100558.78;1802597;79;25462;-77
2022/01/07 03:17:05;;;;;;;13.45;5.90;;;;;;;-3.96;86.45;100556.34;1802554;79;26164;-77
2022/01/07 03:19:31;;;;;;;17.80;6.65;;;;;;;-3.98;86.31;100562.34;1802577;79;25604;-76
2022/01/07 03:21:58;;;;;;;14.85;6.03;;;;;;;-4.00;86.26;100570.48;1802561;79;27387;-76
2022/01/07 03:24:24;;;;;;;14.30;6.58;;;;;;;-4.02;86.26;100568.55;1802458;77;25601;-76
2022/01/07 03:26:51;;;;;;;12.33;6.00;;;;;;;-4.02;86.50;100567.72;1802571;78;25521;-77
2022/01/07 03:29:17;;;;;;;14.10;6.28;;;;;;;-4.01;86.51;100574.12;1771060;79;26326;-77
2022/01/07 03:31:43;;;;;;;10.43;5.50;;;;;;;-4.02;86.49;100568.55;1802571;79;25588;-76
2022/01/07 03:34:09;;;;;;;11.97;6.20;;;;;;;-4.03;86.29;100565.59;1802528;79;27861;-76
2022/01/07 03:36:36;;;;;;;13.98;5.75;;;;;;;-4.05;86.27;100565.00;1802512;79;25594;-76
2022/01/07 03:39:03;;;;;;;14.18;5.40;;;;;;;-4.04;86.37;100569.25;1802580;77;25589;-76
2022/01/07 03:41:30;;;;;;;15.45;5.28;;;;;;;-4.04;86.34;100569.25;1802452;79;25684;-76
2022/01/07 03:43:56;;;;;;;13.93;5.47;;;;;;;-4.05;86.27;100566.80;1802558;79;25412;-76
2022/01/07 03:46:23;;;;;;;10.03;5.25;;;;;;;-4.08;86.30;100572.52;1802563;79;27413;-76
2022/01/07 03:48:49;;;;;;;15.80;5.35;;;;;;;-4.06;86.27;100581.05;1802468;79;25373;-76
2022/01/07 03:51:16;;;;;;;13.70;5.78;;;;;;;-4.06;86.25;100582.38;1828492;78;25426;-76
2022/01/07 03:53:43;;;;;;;14.78;5.55;;;;;;;-4.05;86.34;100577.38;1831802;78;25669;-76
2022/01/07 03:56:16;;;;;;;12.45;5.40;;;;;;;-4.05;86.29;100578.20;1831887;78;25517;-77
2022/01/07 03:58:38;;;;;;;14.43;5.70;;;;;;;-4.04;86.19;100577.69;1830824;78;28010;-76
2022/01/07 04:01:04;;;;;;;12.63;5.85;;;;;;;-4.05;86.27;100577.38;1831742;77;25679;-76
2022/01/07 04:03:31;;;;;;;14.85;5.80;;;;;;;-4.04;86.18;100577.69;1806015;78;25401;-77
2022/01/07 04:05:57;;;;;;;13.43;6.53;;;;;;;-4.05;86.23;100578.20;1832228;77;25709;-76
2022/01/07 04:08:24;;;;;;;13.53;6.20;;;;;;;-4.06;86.20;100577.09;1832348;78;25565;-75
2022/01/07 04:10:50;;;;;;;11.73;5.92;;;;;;;-4.06;86.17;100587.66;1805979;78;27184;-75
2022/01/07 04:13:16;;;;;;;14.03;6.12;;;;;;;-4.10;86.02;100589.06;1806007;78;25523;-75
2022/01/07 04:15:43;;;;;;;14.18;6.25;;;;;;;-4.13;86.01;100582.38;1831829;76;25653;-75
2022/01/07 04:18:09;;;;;;;12.90;5.80;;;;;;;-4.15;86.10;100583.90;1806084;78;25648;-75
2022/01/07 04:20:37;;;;;;;14.07;5.80;;;;;;;-4.15;86.10;100593.15;1831855;78;25575;-74
2022/01/07 04:23:07;;;;;;;14.53;5.97;;;;;;;-4.16;86.09;100588.87;1831834;77;27018;-75
2022/01/07 04:25:35;;;;;;;14.78;5.97;;;;;;;-4.18;86.04;100584.30;1831750;78;25423;-74
2022/01/07 04:28:05;;;;;;;13.32;5.70;;;;;;;-4.19;85.94;100591.11;1831824;78;25386;-75
2022/01/07 04:30:37;;;;;;;16.55;6.33;;;;;;;-4.23;85.99;100592.55;1831162;78;25635;-75
2022/01/07 04:33:05;;;;;;;15.50;7.03;;;;;;;-4.24;85.88;100590.42;1830048;78;25539;-76
2022/01/07 04:35:35;;;;;;;16.60;6.67;;;;;;;-4.28;85.96;100584.42;1806303;78;27510;-76
2022/01/07 04:38:04;;;;;;;14.98;6.92;;;;;;;-4.29;85.91;100577.02;1831616;77;25498;-75
2022/01/07 04:40:32;;;;;;;17.92;6.65;;;;;;;-4.31;85.93;100577.70;1831972;78;25353;-75
2022/01/07 04:43:00;;;;;;;16.00;6.67;;;;;;;-4.33;86.04;100574.45;1831765;78;25668;-75
2022/01/07 04:45:27;;;;;;;15.03;6.43;;;;;;;-4.34;86.01;100572.84;1806221;78;25476;-75
2022/01/07 04:47:53;;;;;;;13.13;6.90;;;;;;;-4.37;85.97;100564.81;1831996;77;27871;-75
2022/01/07 04:50:22;;;;;;;13.30;6.50;;;;;;;-4.39;85.85;100569.98;1831837;77;25702;-75
2022/01/07 04:52:49;;;;;;;16.10;6.10;;;;;;;-4.42;85.84;100571.72;1831987;78;25367;-75
2022/01/07 04:55:24;;;;;;;11.97;5.35;;;;;;;-4.47;85.86;100570.20;1831796;77;25765;-75
2022/01/07 04:57:50;;;;;;;11.30;5.62;;;;;;;-4.46;86.07;100566.53;1830131;78;25509;-75
2022/01/07 05:00:20;;;;;;;12.75;5.70;;;;;;;-4.47;85.95;100572.33;1831787;78;28196;-73
2022/01/07 05:02:47;;;;;;;17.32;5.90;;;;;;;-4.47;86.02;100564.41;1831680;78;25720;-75
2022/01/07 05:05:14;;;;;;;15.20;6.58;;;;;;;-4.45;86.01;100558.92;1806134;78;25462;-74
2022/01/07 05:07:41;;;;;;;14.00;5.95;;;;;;;-4.42;86.04;100568.56;1831752;78;25419;-75
2022/01/07 05:10:12;;;;;;;16.77;6.20;;;;;;;-4.41;85.99;100566.24;1806111;78;25628;-74
2022/01/07 05:12:39;;;;;;;13.90;5.60;;;;;;;-4.38;86.08;100567.65;1831831;78;27997;-74
2022/01/07 05:15:06;;;;;;;13.20;5.83;;;;;;;-4.34;86.09;100562.28;1831689;78;25387;-74
2022/01/07 05:17:33;;;;;;;13.58;5.97;;;;;;;-4.33;85.96;100562.05;1831775;78;25556;-75
2022/01/07 05:20:00;;;;;;;12.63;5.10;;;;;;;-4.32;85.86;100557.60;1831898;77;26321;-75
2022/01/07 05:22:28;;;;;;;13.00;5.92;;;;;;;-4.30;85.97;100560.05;1832000;78;25516;-75
2022/01/07 05:24:54;;;;;;;15.83;6.25;;;;;;;-4.25;86.00;100553.13;1831866;77;27310;-75
2022/01/07 05:27:21;;;;;;;11.93;5.15;;;;;;;-4.21;86.02;100550.36;1831849;78;25597;-75
2022/01/07 05:29:47;;;;;;;11.28;5.75;;;;;;;-4.19;85.74;100547.52;1806200;78;25587;-75
2022/01/07 05:32:14;;;;;;;20.48;6.10;;;;;;;-4.14;85.88;100547.72;1831899;78;25671;-75
2022/01/07 05:34:40;;;;;;;11.33;5.85;;;;;;;-4.10;85.90;100547.62;1831958;78;25443;-75
2022/01/07 05:37:11;;;;;;;18.17;5.53;;;;;;;-4.06;85.62;100555.95;1831917;78;27319;-75
2022/01/07 05:39:35;;;;;;;15.88;5.95;;;;;;;-4.03;85.45;100556.34;1830476;78;25616;-75
2022/01/07 05:42:01;;;;;;;16.07;5.87;;;;;;;-4.04;85.11;100543.34;1831934;78;25552;-74
2022/01/07 05:44:28;;;;;;;11.88;5.03;;;;;;;-4.08;84.78;100546.91;1806117;78;26328;-74
2022/01/07 05:46:55;;;;;;;11.70;4.80;;;;;;;-4.13;84.55;100551.47;1831941;78;25545;-74
2022/01/07 05:49:21;;;;;;;12.50;5.53;;;;;;;-4.14;84.50;100556.96;1831905;78;27315;-74
2022/01/07 05:51:48;;;;;;;16.82;5.70;;;;;;;-4.19;84.44;100553.64;1831739;77;25522;-74
2022/01/07 05:54:14;;;;;;;14.65;6.10;;;;;;;-4.24;84.41;100551.28;1831919;78;25622;-74
2022/01/07 05:56:41;;;;;;;14.50;5.37;;;;;;;-4.28;84.43;100562.77;1831869;78;25610;-74
2022/01/07 05:59:07;;;;;;;15.08;5.62;;;;;;;-4.32;84.17;100563.69;1831949;78;25403;-74
2022/01/07 06:01:33;;;;;;;16.23;6.58;;;;;;;-4.38;84.17;100562.37;1831916;78;27311;-75
2022/01/07 06:04:00;;;;;;;14.00;5.58;;;;;;;-4.46;83.95;100562.08;1831774;77;25533;-75
2022/01/07 06:06:27;;;;;;;12.63;4.95;;;;;;;-4.57;83.76;100550.28;1831914;78;25347;-75
2022/01/07 06:08:53;;;;;;;16.27;5.67;;;;;;;-4.63;84.14;100555.06;1831847;78;25699;-75
2022/01/07 06:11:20;;;;;;;10.48;5.87;;;;;;;-4.69;84.07;100556.66;1831922;78;25440;-75
2022/01/07 06:13:46;;;;;;;15.05;6.40;;;;;;;-4.71;84.27;100560.53;1831891;78;27324;-75
2022/01/07 06:16:12;;;;;;;11.40;5.75;;;;;;;-4.75;84.40;100565.41;1831788;78;25553;-75
2022/01/07 06:18:57;;;;;;;13.22;5.85;;;;;;;-4.76;84.55;100563.77;1831889;78;25422;-75
2022/01/07 06:21:22;;;;;;;12.85;5.37;;;;;;;-4.77;84.65;100568.73;1831262;78;25613;-74
2022/01/07 06:23:49;;;;;;;14.90;6.50;;;;;;;-4.82;84.56;100568.52;1831918;78;25640;-74
2022/01/07 06:26:17;;;;;;;13.20;6.08;;;;;;;-4.85;84.61;100579.50;1831942;78;27878;-74
2022/01/07 06:28:43;;;;;;;16.97;6.70;;;;;;;-4.88;84.70;100589.93;1806115;78;25609;-74
2022/01/07 06:31:10;;;;;;;11.63;4.97;;;;;;;-4.92;84.68;100585.24;1831866;78;25392;-74
2022/01/07 06:33:36;;;;;;;19.85;6.78;;;;;;;-4.97;84.87;100587.18;1831853;78;25549;-74
2022/01/07 06:36:03;;;;;;;12.45;5.78;;;;;;;-4.98;84.84;100581.59;1831892;78;25569;-74
2022/01/07 06:38:30;;;;;;;14.18;7.37;;;;;;;-5.01;84.69;100582.49;1780091;78;28034;-74
2022/01/07 06:40:56;;;;;;;14.65;6.60;;;;;;;-5.00;85.05;100576.22;1831805;78;25609;-74
2022/01/07 06:43:23;;;;;;;14.80;6.25;;;;;;;-4.97;85.02;100584.55;1831880;78;25376;-74
2022/01/07 06:45:49;;;;;;;17.23;7.00;;;;;;;-4.95;85.24;100579.87;1831764;78;25733;-74
2022/01/07 06:48:16;;;;;;;22.65;8.08;;;;;;;-4.92;85.36;100578.16;1831862;78;25370;-74
2022/01/07 06:50:42;;;;;;;18.10;7.25;;;;;;;-4.85;85.59;100583.45;1798569;79;27322;-74
2022/01/07 06:53:09;;;;;;;16.07;6.70;;;;;;;-4.84;85.29;100590.86;1802414;79;25660;-74
2022/01/07 06:55:36;;;;;;;18.23;6.72;;;;;;;-4.87;85.13;100589.41;1802491;79;25440;-74
2022/01/07 06:58:02;;;;;;;14.28;7.40;;;;;;;-4.90;85.07;100588.52;1771260;79;26160;-74
2022/01/07 07:00:29;;;;;;;16.70;7.78;;;;;;;-4.90;85.28;100594.60;1802561;79;25377;-74
2022/01/07 07:02:55;;;;;;;23.65;8.60;;;;;;;-4.88;85.33;100595.72;1771564;79;28235;-74
2022/01/07 07:05:24;;;;;;;19.42;8.20;;;;;;;-4.89;85.19;100596.23;1802482;79;25585;-73
2022/01/07 07:07:51;;;;;;;17.12;8.25;;;;;;;-4.92;85.11;100595.31;1802573;79;25526;-73
2022/01/07 07:10:18;;;;;;;20.57;7.90;;;;;;;-4.93;85.13;100602.11;1802512;79;25729;-73
2022/01/07 07:12:44;;;;;;;17.85;7.53;;;;;;;-4.96;85.26;100599.34;1802751;78;25544;-74
2022/01/07 07:15:11;;;;;;;17.42;7.42;;;;;;;-4.95;85.30;100595.70;1771380;79;27956;-74
2022/01/07 07:17:37;;;;;;;15.83;7.80;;;;;;;-4.96;85.38;100605.14;1802431;79;25531;-74
2022/01/07 07:20:05;;;;;;;18.25;8.20;;;;;;;-4.94;85.59;100600.47;1771173;79;25446;-74
2022/01/07 07:22:31;;;;;;;18.12;8.28;;;;;;;-4.93;85.65;100604.75;1802472;79;25697;-74
2022/01/07 07:24:57;;;;;;;16.27;7.25;;;;;;;-4.93;85.78;100604.75;1802494;79;25659;-74
2022/01/07 07:27:24;;;;;;;20.12;8.35;;;;;;;-4.92;85.98;100595.80;1802523;79;27362;-74
2022/01/07 07:29:50;;;;;;;21.00;8.20;;;;;;;-4.88;85.94;100592.57;1802418;79;25658;-74
2022/01/07 07:32:22;;;;;;;19.98;7.72;;;;;;;-4.85;86.02;100590.54;1802535;79;25409;-74
2022/01/07 07:34:58;;;;;;;16.80;7.33;;;;;;;-4.80;86.19;100593.39;1801524;79;25791;-74
2022/01/07 07:37:13;;;;;;;19.65;7.45;;;;;;;-4.76;86.17;100583.56;1799692;79;25377;-74
2022/01/07 07:39:41;;;;;;;17.60;7.78;;;;;;;-4.69;86.31;100583.58;1802496;78;27297;-74
2022/01/07 07:42:07;;;;;;;20.23;9.05;;;;;;;-4.66;86.15;100584.50;1802373;79;25560;-74
2022/01/07 07:44:34;;;;;;;20.17;9.43;;;;;;;-4.60;86.28;100574.44;1771439;79;25459;-74
2022/01/07 07:47:01;;;;;;;22.82;8.38;;;;;;;-4.53;86.39;100579.23;1802466;79;25731;-74
2022/01/07 07:49:27;;;;;;;16.17;8.35;;;;;;;-4.46;86.49;100579.24;1802513;79;25546;-75
2022/01/07 07:51:54;;;;;;;22.42;8.40;;;;;;;-4.37;86.36;100589.09;1820286;78;27296;-74
2022/01/07 07:54:20;;;;;;;24.27;8.90;;;;;;;-4.28;86.31;100577.81;1831703;78;25600;-74
2022/01/07 07:56:46;;;;;;;24.98;9.88;;;;;;;-4.13;86.72;100583.70;1831796;78;25462;-74
2022/01/07 07:59:13;;;;;;;21.62;8.65;;;;;;;-3.94;87.43;100576.77;1831761;78;25636;-74
2022/01/07 08:01:39;;;;;;;24.52;9.25;;;;;;;-3.66;88.79;100569.89;1831837;78;25443;-74
2022/01/07 08:04:07;;;;;;;20.57;8.30;;;;;;;-3.51;87.37;100567.50;1831769;78;28090;-76
2022/01/07 08:06:34;;;;;;;24.07;10.10;;;;;;;-3.39;87.20;100566.65;1806144;78;25635;-75
2022/01/07 08:09:02;;;;;;;22.87;9.00;;;;;;;-3.31;86.32;100568.75;1828938;78;25356;-75
2022/01/07 08:11:32;;;;;;;19.12;9.00;;;;;;;-3.22;86.70;100573.59;1833178;78;25616;-75
2022/01/07 08:16:43;;;;;;;19.42;8.30;;;;;;;-3.13;85.40;100574.66;1803635;78;27992;-74
2022/01/07 08:19:11;;;;;;;21.48;9.13;;;;;;;-3.09;85.84;100563.97;1810815;78;25808;-75
2022/01/07 08:21:37;;;;;;;20.43;9.08;;;;;;;-3.06;85.42;100566.19;1776151;80;25698;-75
2022/01/07 08:24:07;;;;;;;18.30;8.48;;;;;;;-3.01;85.38;100569.81;1776064;80;25619;-71
2022/01/07 08:26:33;;;;;;;22.35;9.75;;;;;;;-2.98;85.27;100572.53;1773714;80;25409;-71
2022/01/07 08:29:05;;;;;;;20.45;9.45;;;;;;;-2.90;85.68;100580.23;1773587;80;27338;-71
2022/01/07 08:36:42;;;;;;;19.00;8.45;;;;;;;-2.74;85.35;100578.94;1775969;80;25681;-71
2022/01/07 08:39:10;;;;;;;26.02;8.88;;;;;;;-2.66;85.26;100576.52;1773608;80;25612;-72
2022/01/07 08:41:38;;;;;;;21.17;8.58;;;;;;;-2.56;84.88;100586.66;1773527;80;27326;-72
2022/01/07 08:44:06;;;;;;;22.02;8.93;;;;;;;-2.33;85.79;100579.46;1773403;80;25614;-72
2022/01/07 08:46:33;;;;;;;20.20;9.38;;;;;;;-1.92;87.30;100586.83;1749482;80;25500;-72
2022/01/07 08:49:01;;;;;;;19.35;8.50;;;;;;;-1.37;87.66;100580.72;1773509;80;25660;-71
2022/01/07 08:51:27;;;;;;;19.55;9.18;;;;;;;-0.97;85.95;100579.40;1773846;80;25448;-73
2022/01/07 08:53:55;;;;;;;21.97;9.55;;;;;;;-0.82;84.31;100588.30;1774859;80;27301;-72
2022/01/07 08:56:26;;;;;;;22.30;9.78;;;;;;;-0.62;84.09;100592.00;1774653;80;25432;-72
2022/01/07 08:58:55;;;;;;;23.38;9.58;;;;;;;-0.45;83.62;100589.50;1774745;80;25628;-72
2022/01/07 09:01:27;;;;;;;22.30;9.63;;;;;;;-0.44;82.14;100589.80;1774975;80;25615;-73
2022/01/07 09:03:53;;;;;;;20.92;9.48;;;;;;;-0.45;82.26;100587.64;1746483;80;25458;-72
2022/01/07 09:06:20;;;;;;;17.50;9.05;;;;;;;-0.44;81.93;100587.94;1775408;80;27867;-73
2022/01/07 09:08:46;;;;;;;25.12;8.93;;;;;;;-0.39;80.71;100593.38;1775362;80;25683;-73
2022/01/07 09:11:13;;;;;;;15.95;7.90;;;;;;;-0.37;81.34;100587.84;1775344;80;25648;-73
2022/01/07 09:13:40;;;;;;;19.60;9.20;;;;;;;-0.41;80.88;100593.30;1769623;81;25628;-72
2022/01/07 09:16:06;;;;;;;16.20;8.40;;;;;;;-0.44;81.02;100586.61;1775436;80;25426;-73
2022/01/07 09:18:33;;;;;;;19.23;8.85;;;;;;;-0.35;81.73;100595.59;1774599;80;27338;-73
2022/01/07 09:21:00;;;;;;;20.32;8.58;;;;;;;-0.30;80.31;100597.84;1775296;80;25595;-73
2022/01/07 09:23:27;;;;;;;17.02;8.50;;;;;;;-0.34;80.29;100591.38;1774604;80;25639;-73
2022/01/07 09:25:53;;;;;;;22.58;9.83;;;;;;;-0.34;80.64;100585.23;1775330;80;26143;-73
2022/01/07 09:28:20;;;;;;;19.32;9.23;;;;;;;-0.43;79.15;100590.07;1759320;80;25456;-72
2022/01/07 09:30:46;;;;;;;21.27;9.33;;;;;;;-0.56;80.15;100591.10;1775374;80;28062;-73
2022/01/07 09:33:13;;;;;;;19.75;8.78;;;;;;;-0.58;80.45;100594.48;1774519;80;25520;-73
2022/01/07 09:35:39;;;;;;;18.75;8.83;;;;;;;-0.57;80.72;100591.60;1775463;80;25385;-73
2022/01/07 09:38:06;;;;;;;24.23;10.35;;;;;;;-0.53;80.40;100583.18;1774538;80;25736;-73
2022/01/07 09:40:33;;;;;;;14.43;8.13;;;;;;;-0.50;80.52;100584.06;1775188;80;25386;-71
2022/01/07 09:43:03;;;;;;;19.75;9.03;;;;;;;-0.36;80.50;100582.00;1774543;80;27151;-70
2022/01/07 09:45:32;;;;;;;19.30;9.13;;;;;;;0.09;82.57;100581.45;1775207;80;25657;-69
2022/01/07 09:48:01;;;;;;;17.77;8.25;;;;;;;0.24;80.74;100579.13;1774531;80;25401;-70
2022/01/07 09:50:30;;;;;;;19.70;7.93;;;;;;;0.34;80.32;100583.34;1775522;80;25526;-71
2022/01/07 09:52:56;;;;;;;18.20;8.83;;;;;;;0.51;79.86;100573.28;1785224;79;25706;-71
2022/01/07 09:55:24;;;;;;;17.82;7.72;;;;;;;0.70;78.84;100566.77;1800749;79;27977;-70
2022/01/07 09:57:51;;;;;;;16.87;8.48;;;;;;;0.90;78.05;100568.19;1797421;79;25382;-74
2022/01/07 10:00:17;;;;;;;19.60;8.68;;;;;;;1.05;79.08;100555.15;1798004;79;25184;-75
2022/01/07 10:03:10;;;;;;;21.77;9.05;;;;;;;1.13;77.98;100561.16;1773722;79;25614;-75
2022/01/07 10:05:47;;;;;;;17.67;8.68;;;;;;;1.09;77.50;100556.81;1696047;84;25715;-74
2022/01/07 10:08:26;;;;;;;18.20;8.50;;;;;;;1.10;76.84;100553.11;1696129;84;27354;-78
2022/01/07 10:11:19;;;;;;;20.62;8.28;;;;;;;1.31;77.37;100551.59;1695914;84;25571;-73
2022/01/07 10:13:51;;;;;;;15.78;8.45;;;;;;;1.38;76.65;100545.61;1695638;84;25544;-75
2022/01/07 10:16:21;;;;;;;18.50;8.65;;;;;;;1.47;75.75;100552.67;1738993;82;25640;-75
2022/01/07 10:18:49;;;;;;;18.65;8.78;;;;;;;1.95;79.98;100547.80;1739170;82;25435;-74
2022/01/07 10:21:17;;;;;;;16.05;9.08;;;;;;;2.35;75.97;100550.72;1739291;82;27341;-74
2022/01/07 10:23:45;;;;;;;18.55;9.25;;;;;;;2.59;75.96;100540.09;1739158;82;25550;-75
2022/01/07 10:26:18;;;;;;;19.05;9.53;;;;;;;3.06;77.79;100547.26;1739098;82;25213;-77
2022/01/07 10:28:47;;;;;;;19.15;8.50;;;;;;;3.54;74.80;100546.36;1739025;82;25668;-75
2022/01/07 10:31:24;;;;;;;21.33;9.08;;;;;;;4.39;76.22;100552.75;1739346;82;25614;-76
2022/01/07 10:33:53;;;;;;;14.33;8.23;;;;;;;4.93;74.14;100542.23;1739003;82;27940;-77
2022/01/07 10:36:25;;;;;;;16.27;8.13;;;;;;;4.92;71.90;100541.95;1749695;81;25655;-77
2022/01/07 10:38:57;;;;;;;18.65;8.93;;;;;;;4.74;71.04;100540.58;1767290;81;25614;-76
2022/01/07 10:41:24;;;;;;;15.50;8.33;;;;;;;4.51;69.68;100551.20;1789442;79;25737;-76
2022/01/07 10:43:57;;;;;;;15.63;8.70;;;;;;;4.09;67.35;100550.20;1797562;79;25519;-76
2022/01/07 10:46:31;;;;;;;17.05;8.05;;;;;;;3.68;67.51;100548.61;1795529;78;27910;-76
2022/01/07 10:49:04;;;;;;;25.57;8.65;;;;;;;3.47;67.55;100548.42;1797581;79;25577;-76
2022/01/07 10:51:43;;;;;;;18.60;9.18;;;;;;;3.25;66.43;100545.86;1796100;79;25541;-75
2022/01/07 10:54:12;;;;;;;17.90;8.93;;;;;;;3.32;68.58;100537.09;1758181;81;25629;-76
2022/01/07 10:56:44;;;;;;;22.98;9.63;;;;;;;3.44;68.37;100542.27;1762325;81;25595;-75
2022/01/07 10:59:16;;;;;;;16.55;8.53;;;;;;;3.49;68.10;100544.16;1762231;81;27304;-75
2022/01/07 11:01:48;;;;;;;15.98;7.87;;;;;;;3.49;66.31;100553.52;1762141;81;25459;-75
2022/01/07 11:04:26;;;;;;;18.55;8.60;;;;;;;3.55;67.44;100547.95;1736211;81;25591;-75
2022/01/07 11:06:57;;;;;;;19.80;8.23;;;;;;;3.53;66.97;100558.11;1762091;81;26164;-75
2022/01/07 11:09:22;;;;;;;;;;;;;;;3.66;67.32;100553.38;1764754;80;25563;-74
2022/01/07 11:11:55;;;;;;;16.48;7.72;;;;;;;3.91;64.65;100546.87;1762311;81;27889;-75
2022/01/07 11:14:31;;;;;;;17.57;8.08;;;;;;;4.06;65.84;100556.08;1736053;81;25712;-75
2022/01/07 11:17:03;;;;;;;17.00;7.75;;;;;;;4.47;66.54;100553.59;1762193;81;25437;-74
2022/01/07 11:19:41;;;;;;;18.52;8.55;;;;;;;4.63;65.38;100559.30;1761926;81;25623;-75
2022/01/07 11:22:11;;;;;;;18.15;7.87;;;;;;;4.39;65.01;100554.09;1762294;81;25628;-75
2022/01/07 11:24:50;;;;;;;14.85;7.78;;;;;;;4.44;63.11;100557.62;1762503;81;27320;-75
2022/01/07 11:27:22;;;;;;;22.45;8.83;;;;;;;4.40;64.16;100547.14;1763267;81;25558;-75
2022/01/07 11:30:11;;;;;;;16.32;8.45;;;;;;;4.27;63.12;100548.44;1762553;81;25314;-75